Time;durP1;ratioP1;P1;durP2;ratioP2;P2;SDS_P1;SDS_P2;PMS_P1;PMS_P2;Temp;Humidity;BMP_temperature;BMP_pressure;BME280_temperature;BME280_humidity;BME280_pressure;Samples;Min_cycle;Max_cycle;Signal;HPM_P1;HPM_P2
2022/01/19 00:00:19;;;;;;;31.42;12.38;;;;;;;-2.82;87.75;102288.38;5099823;28;20065;-67
2022/01/19 00:02:44;;;;;;;30.50;12.95;;;;;;;-2.84;87.59;102284.91;5097064;28;20028;-68
2022/01/19 00:05:11;;;;;;;28.95;12.95;;;;;;;-2.85;87.74;102280.50;5108985;28;20081;-67
2022/01/19 00:07:37;;;;;;;36.13;14.43;;;;;;;-2.83;87.37;102300.63;5102568;28;20035;-67
2022/01/19 00:10:08;;;;;;;36.00;15.10;;;;;;;-2.86;88.11;102287.53;5093794;27;20035;-67
2022/01/19 00:12:34;;;;;;;40.00;15.15;;;;;;;-2.85;88.13;102283.13;5090255;28;20038;-67
2022/01/19 00:14:59;;;;;;;49.10;17.48;;;;;;;-2.87;88.92;102284.91;5102700;27;20387;-67
2022/01/19 00:17:25;;;;;;;44.63;15.98;;;;;;;-2.89;88.96;102278.78;5103081;28;20036;-67
2022/01/19 00:19:51;;;;;;;47.10;17.70;;;;;;;-2.86;89.00;102287.53;5109124;27;20035;-67
2022/01/19 00:22:17;;;;;;;32.60;14.82;;;;;;;-2.87;88.60;102290.16;5090718;28;20026;-67
2022/01/19 00:24:43;;;;;;;37.15;15.77;;;;;;;-2.88;89.17;102302.38;5099758;28;20137;-68
2022/01/19 00:27:09;;;;;;;35.63;15.52;;;;;;;-2.93;89.17;102292.78;5086331;28;20035;-68
2022/01/19 00:29:34;;;;;;;39.63;16.10;;;;;;;-3.00;89.11;102273.53;5091105;28;20027;-67
2022/01/19 00:32:00;;;;;;;42.90;14.35;;;;;;;-2.89;89.64;102303.28;5077057;28;20118;-68
2022/01/19 00:34:25;;;;;;;46.03;16.08;;;;;;;-2.97;89.83;102291.03;5111512;28;20088;-68
2022/01/19 00:36:51;;;;;;;38.03;15.13;;;;;;;-2.89;89.93;102302.38;5107840;28;20036;-67
2022/01/19 00:39:16;;;;;;;37.67;15.90;;;;;;;-2.95;89.82;102291.91;5099864;28;20084;-67
2022/01/19 00:41:42;;;;;;;36.70;14.45;;;;;;;-2.97;90.16;102286.66;5103478;28;20024;-67
2022/01/19 00:44:07;;;;;;;45.35;14.98;;;;;;;-2.96;89.99;102290.16;5093750;28;20039;-67
2022/01/19 00:46:33;;;;;;;49.90;14.80;;;;;;;-2.95;90.38;102303.28;5093668;28;20031;-67
2022/01/19 00:48:58;;;;;;;43.53;15.00;;;;;;;-2.94;91.17;102302.41;5109755;28;20056;-67
2022/01/19 00:51:24;;;;;;;37.30;14.15;;;;;;;-3.01;91.10;102287.53;5092647;28;20039;-68
2022/01/19 00:53:49;;;;;;;39.97;16.30;;;;;;;-2.96;91.20;102292.78;5105808;28;20035;-67
2022/01/19 00:56:15;;;;;;;40.20;14.32;;;;;;;-2.98;90.45;102303.28;5091649;28;20031;-68
2022/01/19 00:58:40;;;;;;;40.05;14.95;;;;;;;-3.01;89.65;102305.91;5075012;28;20075;-67
2022/01/19 01:01:06;;;;;;;41.08;15.63;;;;;;;-3.03;89.82;102299.78;5081353;28;20031;-67
2022/01/19 01:03:31;;;;;;;45.83;16.25;;;;;;;-3.06;90.49;102315.53;5090936;28;20110;-67
2022/01/19 01:05:57;;;;;;;34.38;13.82;;;;;;;-3.14;89.86;102314.66;5091536;28;20032;-67
2022/01/19 01:08:22;;;;;;;38.78;14.43;;;;;;;-3.14;89.53;102317.28;5101092;28;20527;-67
2022/01/19 01:10:49;;;;;;;35.78;15.07;;;;;;;-3.14;88.81;102319.03;5075663;28;20028;-67
2022/01/19 01:16:03;;;;;;;36.75;14.95;;;;;;;-3.20;88.35;102309.41;5102505;28;20496;-69
2022/01/19 01:18:30;;;;;;;37.30;14.73;;;;;;;-3.26;88.54;102304.16;5113703;28;20042;-69
2022/01/19 01:20:58;;;;;;;39.78;15.35;;;;;;;-3.24;88.29;102325.16;5115638;28;20719;-69
2022/01/19 01:23:26;;;;;;;42.05;15.27;;;;;;;-3.27;88.81;102317.28;5106426;28;20106;-69
2022/01/19 01:25:52;;;;;;;50.42;16.35;;;;;;;-3.30;88.76;102312.03;5096274;28;20028;-69
2022/01/19 01:28:19;;;;;;;39.92;16.08;;;;;;;-3.49;88.57;102284.94;5105821;27;20027;-69
2022/01/19 01:30:45;;;;;;;42.40;15.88;;;;;;;-3.38;88.06;102311.16;5111315;28;20024;-69
2022/01/19 01:33:11;;;;;;;39.90;15.10;;;;;;;-3.42;88.27;102298.94;5102789;28;20632;-69
2022/01/19 01:35:37;;;;;;;35.40;15.38;;;;;;;-3.41;88.67;102305.91;5100535;28;20020;-68
2022/01/19 01:38:04;;;;;;;36.05;15.27;;;;;;;-3.44;88.17;102295.44;5098600;28;20024;-67
2022/01/19 01:40:33;;;;;;;36.28;15.35;;;;;;;-3.46;88.43;102290.19;5106134;28;20031;-69
2022/01/19 01:42:59;;;;;;;39.83;17.08;;;;;;;-3.46;88.31;102284.94;5107496;28;20024;-69
2022/01/19 01:45:29;;;;;;;47.67;15.85;;;;;;;-3.49;87.88;102298.03;5108285;28;20033;-67
2022/01/19 01:48:08;;;;;;;40.15;15.82;;;;;;;-3.68;87.70;102272.66;5088194;28;20028;-68
2022/01/19 01:53:26;;;;;;;35.65;15.75;;;;;;;-3.58;87.63;102279.66;5098315;28;20085;-68
2022/01/19 01:55:55;;;;;;;45.13;16.85;;;;;;;-3.60;87.52;102268.31;5093724;28;20476;-68
2022/01/19 01:58:21;;;;;;;43.67;15.60;;;;;;;-3.63;88.24;102267.44;5075149;28;20032;-67
2022/01/19 02:00:46;;;;;;;43.70;16.25;;;;;;;-3.67;87.71;102261.34;5094164;28;20045;-68
2022/01/19 02:03:12;;;;;;;38.05;15.88;;;;;;;-3.71;87.85;102256.94;5093448;28;20081;-68
2022/01/19 02:05:50;;;;;;;53.25;16.75;;;;;;;-3.74;88.05;102249.06;5107194;28;20067;-67
2022/01/19 02:08:22;;;;;;;45.97;17.13;;;;;;;-3.71;88.24;102256.09;5105926;28;20032;-68
2022/01/19 02:16:31;;;;;;;37.35;14.95;;;;;;;-3.79;87.81;102244.69;5113332;28;20908;-67
2022/01/19 02:21:46;;;;;;;42.83;15.32;;;;;;;-3.91;86.81;102235.06;5110371;28;20391;-68
2022/01/19 02:24:18;;;;;;;36.63;15.65;;;;;;;-3.92;85.83;102232.44;5104033;28;20119;-68
2022/01/19 02:27:02;;;;;;;36.17;15.27;;;;;;;-3.93;87.05;102231.59;5095722;28;20027;-67
2022/01/19 02:40:48;;;;;;;39.72;16.42;;;;;;;-3.99;87.20;102214.97;5093279;28;20506;-67
2022/01/19 02:43:21;;;;;;;43.13;16.42;;;;;;;-3.99;87.47;102210.63;5101134;28;20128;-68
2022/01/19 02:51:15;;;;;;;45.45;15.52;;;;;;;-4.03;86.53;102192.28;5107480;28;20471;-68
2022/01/19 02:53:40;;;;;;;46.78;15.38;;;;;;;-4.09;86.87;102187.91;5093261;28;20051;-68
2022/01/19 02:56:10;;;;;;;42.28;14.57;;;;;;;-4.11;86.71;102189.63;5101373;28;20042;-67
2022/01/19 02:58:43;;;;;;;35.40;16.38;;;;;;;-4.15;86.16;102181.78;5098780;28;20023;-67
2022/01/19 03:09:21;;;;;;;36.00;14.40;;;;;;;-4.15;85.37;102187.00;5099649;28;20035;-68
2022/01/19 03:11:46;;;;;;;33.28;15.55;;;;;;;-4.19;85.70;102188.78;5092802;28;20036;-67
2022/01/19 03:14:12;;;;;;;35.60;15.18;;;;;;;-4.24;85.76;102179.13;5092906;28;20024;-68
2022/01/19 03:16:38;;;;;;;41.55;14.95;;;;;;;-4.23;86.18;102183.53;5102951;28;20027;-67
2022/01/19 03:19:06;;;;;;;36.30;13.60;;;;;;;-4.25;86.03;102180.00;5107813;28;20096;-67
2022/01/19 03:21:32;;;;;;;36.00;16.15;;;;;;;-4.27;85.79;102193.09;5092304;28;20498;-67
2022/01/19 03:23:58;;;;;;;34.63;14.40;;;;;;;-4.35;86.30;102176.50;5093509;28;20111;-67
2022/01/19 03:26:23;;;;;;;39.65;15.05;;;;;;;-4.32;86.08;102181.72;5112018;28;20057;-69
2022/01/19 03:28:49;;;;;;;43.25;16.17;;;;;;;-4.34;85.84;102183.50;5111868;28;20161;-68
2022/01/19 03:31:14;;;;;;;39.08;14.73;;;;;;;-4.37;85.85;102170.38;5090688;28;20024;-69
2022/01/19 03:33:40;;;;;;;48.10;16.08;;;;;;;-4.35;84.94;102181.75;5094719;28;20027;-69
2022/01/19 03:36:05;;;;;;;39.28;14.88;;;;;;;-4.42;85.25;102182.56;5101141;28;20028;-69
2022/01/19 03:38:31;;;;;;;35.80;14.80;;;;;;;-4.43;84.18;102190.44;5098012;28;20023;-69
2022/01/19 03:40:56;;;;;;;43.58;14.70;;;;;;;-4.49;84.54;102186.06;5088352;28;20484;-69
2022/01/19 03:43:22;;;;;;;39.55;16.23;;;;;;;-4.50;84.56;102193.91;5092884;28;20031;-69
2022/01/19 03:45:52;;;;;;;33.97;15.68;;;;;;;-4.57;84.80;102174.69;5094794;28;20043;-69
2022/01/19 03:48:43;;;;;;;49.28;17.05;;;;;;;-4.59;85.20;102173.81;5073605;28;20019;-67
2022/01/19 03:51:08;;;;;;;40.33;16.65;;;;;;;-4.61;85.26;102186.03;5095278;28;20035;-68
2022/01/19 03:53:34;;;;;;;46.08;15.68;;;;;;;-4.63;85.65;102187.75;5106196;28;20032;-68
2022/01/19 03:56:00;;;;;;;41.92;15.75;;;;;;;-4.62;85.87;102183.41;5108806;28;20031;-68
2022/01/19 03:58:26;;;;;;;43.60;15.07;;;;;;;-4.64;86.14;102183.41;5112129;28;20055;-68
2022/01/19 04:00:55;;;;;;;41.22;17.65;;;;;;;-4.74;85.29;102163.31;5097008;28;20038;-67
2022/01/19 04:03:29;;;;;;;49.50;17.77;;;;;;;-4.64;85.61;102185.13;5110843;28;20027;-68
2022/01/19 04:06:05;;;;;;;41.42;15.75;;;;;;;-4.71;85.70;102174.63;5101993;28;20023;-68
2022/01/19 04:08:30;;;;;;;39.90;16.00;;;;;;;-4.68;85.89;102181.63;5103911;28;20026;-68
2022/01/19 04:10:55;;;;;;;47.85;16.58;;;;;;;-4.66;86.03;102190.38;5102219;28;20415;-67
2022/01/19 04:15:51;;;;;;;44.22;16.27;;;;;;;-4.79;85.60;102179.00;5098715;28;20038;-67
2022/01/19 04:18:17;;;;;;;44.75;16.80;;;;;;;-4.79;85.39;102178.09;5110819;28;20026;-68
2022/01/19 04:20:47;;;;;;;41.95;17.48;;;;;;;-4.82;85.05;102171.13;5079948;28;20031;-68
2022/01/19 04:23:13;;;;;;;43.08;14.75;;;;;;;-4.82;84.59;102178.97;5100783;28;20055;-68
2022/01/19 04:25:38;;;;;;;42.10;16.25;;;;;;;-4.84;85.23;102170.22;5098143;27;20066;-68
2022/01/19 04:28:07;;;;;;;36.50;16.00;;;;;;;-4.86;85.13;102165.88;5091194;28;20028;-67
2022/01/19 04:30:34;;;;;;;41.33;17.63;;;;;;;-4.95;84.64;102151.00;5088314;28;20027;-67
2022/01/19 04:33:08;;;;;;;42.05;15.10;;;;;;;-4.89;83.84;102158.00;5095470;28;20408;-67
2022/01/19 04:35:44;;;;;;;;;;;;;;;-4.82;84.72;102173.75;5084609;28;20031;-67
2022/01/19 05:07:42;;;;;;;37.35;16.05;;;;;;;-4.96;86.20;102151.84;5094784;28;20039;-69
2022/01/19 05:15:36;;;;;;;30.30;14.00;;;;;;;-4.93;86.46;102157.09;5101359;28;20042;-67
2022/01/19 05:18:03;;;;;;;44.47;15.82;;;;;;;-4.96;86.13;102153.63;5100315;28;20040;-67
2022/01/19 05:20:29;;;;;;;41.88;14.60;;;;;;;-4.93;86.40;102154.50;5092944;28;20485;-67
2022/01/19 05:22:54;;;;;;;35.60;14.68;;;;;;;-4.98;85.96;102145.75;5090731;28;20066;-68
2022/01/19 05:25:20;;;;;;;47.50;16.75;;;;;;;-5.03;86.34;102136.16;5099745;28;20028;-69
2022/01/19 05:27:45;;;;;;;41.85;16.80;;;;;;;-5.01;85.94;102143.13;5097383;28;20170;-69
2022/01/19 05:30:12;;;;;;;44.35;15.82;;;;;;;-5.03;85.60;102141.38;5108587;28;20480;-69
2022/01/19 05:32:37;;;;;;;45.67;16.05;;;;;;;-5.03;86.20;102150.09;5091197;28;20133;-69
2022/01/19 05:35:03;;;;;;;36.42;14.68;;;;;;;-4.97;86.35;102164.94;5098858;28;20040;-68
2022/01/19 05:37:29;;;;;;;34.80;14.40;;;;;;;-4.99;86.55;102154.47;5098838;28;20028;-69
2022/01/19 05:39:54;;;;;;;39.42;15.85;;;;;;;-4.96;87.00;102162.31;5101868;28;20040;-69
2022/01/19 05:42:19;;;;;;;38.78;16.55;;;;;;;-4.96;88.17;102145.78;5101073;28;20160;-68
2022/01/19 05:44:47;;;;;;;38.08;15.25;;;;;;;-4.98;88.14;102144.88;5108671;28;20055;-69
2022/01/19 05:47:14;;;;;;;46.25;18.75;;;;;;;-4.99;88.07;102144.00;5097509;28;20024;-68
2022/01/19 05:49:43;;;;;;;37.97;16.13;;;;;;;-5.04;88.01;102140.50;5098008;28;20062;-68
2022/01/19 05:52:10;;;;;;;41.75;14.63;;;;;;;-5.01;87.69;102147.47;5111182;28;20395;-69
2022/01/19 05:54:36;;;;;;;48.60;17.08;;;;;;;-5.03;87.08;102144.00;5110271;28;20023;-69
2022/01/19 05:57:02;;;;;;;34.83;16.38;;;;;;;-5.03;87.21;102141.38;5099093;28;20091;-68
2022/01/19 05:59:27;;;;;;;35.72;15.27;;;;;;;-5.08;87.33;102136.13;5105343;28;20093;-68
2022/01/19 06:01:55;;;;;;;37.63;16.40;;;;;;;-5.05;87.78;102135.25;5094546;28;20031;-69
2022/01/19 06:04:21;;;;;;;38.67;15.65;;;;;;;-4.99;87.26;102140.53;5093735;28;20434;-69
2022/01/19 06:06:49;;;;;;;49.95;17.33;;;;;;;-5.01;87.78;102145.75;5099950;28;20027;-68
2022/01/19 06:09:47;;;;;;;48.42;18.13;;;;;;;-5.05;87.78;102135.25;5101545;28;20031;-68
2022/01/19 06:12:09;;;;;;;41.50;17.48;;;;;;;-5.00;89.24;102144.88;5108438;28;20116;-68
2022/01/19 06:14:37;;;;;;;52.33;19.35;;;;;;;-4.96;89.97;102153.63;5099365;27;20089;-68
2022/01/19 06:17:04;;;;;;;44.90;17.60;;;;;;;-4.90;91.10;102164.13;5109458;27;20036;-68
2022/01/19 06:19:30;;;;;;;43.17;18.45;;;;;;;-4.91;92.00;102150.16;5105186;28;20097;-68
2022/01/19 06:21:56;;;;;;;49.55;18.15;;;;;;;-4.92;93.15;102143.19;5102683;28;20031;-68
2022/01/19 06:24:22;;;;;;;49.80;19.02;;;;;;;-4.80;94.17;102152.81;5103599;28;20046;-68
2022/01/19 06:26:48;;;;;;;40.35;18.42;;;;;;;-4.75;94.46;102158.91;5103197;28;20031;-68
2022/01/19 06:29:13;;;;;;;48.72;20.58;;;;;;;-4.71;94.70;102150.19;5100385;28;20027;-68
2022/01/19 06:31:39;;;;;;;47.58;20.70;;;;;;;-4.70;95.38;102144.97;5098450;28;20039;-68
2022/01/19 06:34:04;;;;;;;65.40;24.25;;;;;;;-4.68;95.22;102140.63;5100125;27;20538;-68
2022/01/19 06:36:30;;;;;;;72.55;25.73;;;;;;;-4.60;95.64;102145.00;5103698;27;20024;-68
2022/01/19 06:38:55;;;;;;;78.55;28.25;;;;;;;-4.56;95.37;102149.38;5098449;27;20492;-67
2022/01/19 06:41:21;;;;;;;80.07;28.75;;;;;;;-4.54;95.52;102145.03;5110477;28;20036;-68
2022/01/19 06:43:47;;;;;;;73.53;27.85;;;;;;;-4.51;95.74;102151.16;5110078;27;20031;-68
2022/01/19 06:46:12;;;;;;;80.47;27.60;;;;;;;-4.49;96.26;102138.94;5119498;27;20027;-68
2022/01/19 06:48:38;;;;;;;68.30;25.67;;;;;;;-4.44;95.40;102142.44;5113209;28;20031;-68
2022/01/19 06:51:04;;;;;;;75.75;27.77;;;;;;;-4.49;95.85;102127.59;5111834;28;20395;-67
2022/01/19 06:53:29;;;;;;;67.65;25.02;;;;;;;-4.41;95.28;102142.47;5109677;28;20105;-67
2022/01/19 06:55:57;;;;;;;67.53;25.33;;;;;;;-4.44;95.07;102134.59;5090841;28;20435;-67
2022/01/19 06:58:23;;;;;;;61.00;24.20;;;;;;;-4.37;95.16;102141.59;5101811;27;20118;-67
2022/01/19 07:00:49;;;;;;;65.72;27.00;;;;;;;-4.38;95.24;102112.78;5083302;28;20036;-67
2022/01/19 07:03:14;;;;;;;65.50;24.50;;;;;;;-4.37;94.52;102125.88;5108638;27;20071;-69
2022/01/19 07:05:40;;;;;;;62.25;24.38;;;;;;;-4.29;94.34;102133.75;5099858;28;20028;-69
2022/01/19 07:08:05;;;;;;;66.57;23.85;;;;;;;-4.24;94.79;102131.97;5095915;28;20040;-69
2022/01/19 07:10:31;;;;;;;58.20;25.73;;;;;;;-4.24;94.73;102124.13;5100797;28;20043;-68
2022/01/19 07:13:01;;;;;;;54.47;23.38;;;;;;;-4.14;94.91;102137.25;5093113;28;20032;-68
2022/01/19 07:15:27;;;;;;;67.45;27.25;;;;;;;-4.11;96.17;102126.75;5100447;28;20035;-68
2022/01/19 07:17:53;;;;;;;66.50;25.35;;;;;;;-4.10;96.94;102118.03;5110774;28;20023;-68
2022/01/19 07:20:18;;;;;;;61.30;27.00;;;;;;;-3.99;97.27;102123.28;5110756;28;20046;-68
2022/01/19 07:22:44;;;;;;;55.15;24.52;;;;;;;-3.93;97.68;102120.66;5113014;28;20031;-68
2022/01/19 07:25:10;;;;;;;65.30;26.38;;;;;;;-3.81;98.34;102126.75;5090746;28;20015;-68
2022/01/19 07:27:36;;;;;;;65.93;26.52;;;;;;;-3.75;98.00;102121.50;5113116;28;20044;-68
2022/01/19 07:30:04;;;;;;;51.67;23.60;;;;;;;-3.69;98.93;102125.88;5111667;28;20125;-68
2022/01/19 07:32:33;;;;;;;58.53;24.15;;;;;;;-3.68;98.24;102125.88;5075726;28;20034;-68
2022/01/19 07:34:59;;;;;;;55.80;20.42;;;;;;;-3.55;98.99;102119.72;5076715;28;20042;-69
2022/01/19 07:37:25;;;;;;;46.15;21.08;;;;;;;-3.51;99.08;102120.59;5112898;27;20039;-69
2022/01/19 07:39:51;;;;;;;44.47;20.02;;;;;;;-3.48;99.34;102097.00;5098100;28;20062;-69
2022/01/19 07:42:16;;;;;;;51.92;20.50;;;;;;;-3.34;99.61;102103.97;5111163;28;20084;-68
2022/01/19 07:44:42;;;;;;;49.25;20.10;;;;;;;-3.26;99.61;102102.16;5092288;28;20023;-68
2022/01/19 07:47:07;;;;;;;40.63;20.20;;;;;;;-3.24;99.81;102100.44;5108057;28;20066;-69
2022/01/19 07:49:33;;;;;;;40.65;19.67;;;;;;;-3.15;99.94;102089.03;5085680;28;20040;-69
2022/01/19 07:51:58;;;;;;;46.72;21.17;;;;;;;-3.13;100.00;102090.75;5097799;28;20114;-69
2022/01/19 07:54:24;;;;;;;47.85;21.02;;;;;;;-3.00;100.00;102095.06;5106673;28;20039;-69
2022/01/19 07:56:49;;;;;;;51.15;20.38;;;;;;;-2.90;100.00;102095.91;5091641;28;20042;-69
2022/01/19 07:59:16;;;;;;;55.80;21.60;;;;;;;-2.82;100.00;102095.00;5112833;28;20039;-68
2022/01/19 08:01:42;;;;;;;52.50;21.88;;;;;;;-2.80;100.00;102087.09;5108926;28;20032;-69
2022/01/19 08:04:08;;;;;;;52.15;22.15;;;;;;;-2.70;100.00;102091.44;5099163;27;20046;-69
2022/01/19 08:06:33;;;;;;;55.53;24.00;;;;;;;-2.61;100.00;102086.13;5110997;28;20028;-69
2022/01/19 08:08:59;;;;;;;57.97;23.35;;;;;;;-2.61;100.00;102075.63;5074013;28;20123;-69
2022/01/19 08:11:25;;;;;;;57.90;22.90;;;;;;;-2.54;100.00;102067.66;5092011;28;20511;-69
2022/01/19 08:13:51;;;;;;;46.58;20.83;;;;;;;-2.41;100.00;102071.94;5093608;28;20121;-67
2022/01/19 08:16:17;;;;;;;51.25;22.38;;;;;;;-2.37;100.00;102070.19;5093629;28;20032;-67
2022/01/19 08:18:42;;;;;;;58.85;21.95;;;;;;;-2.32;100.00;102058.75;5091175;28;20043;-67
2022/01/19 08:21:08;;;;;;;49.80;22.88;;;;;;;-2.23;100.00;102068.31;5105487;28;20491;-67
2022/01/19 08:23:33;;;;;;;58.80;22.73;;;;;;;-2.19;100.00;102069.19;5094068;28;20536;-67
2022/01/19 08:25:59;;;;;;;55.95;22.17;;;;;;;-2.10;100.00;102071.75;5091030;28;20020;-69
2022/01/19 08:28:25;;;;;;;54.80;23.08;;;;;;;-2.02;100.00;102072.53;5092076;28;20036;-69
2022/01/19 08:30:50;;;;;;;59.78;22.48;;;;;;;-1.99;100.00;102070.75;5092904;28;20034;-69
2022/01/19 08:33:16;;;;;;;47.35;20.60;;;;;;;-1.89;100.00;102066.28;5111532;28;20080;-69
2022/01/19 08:35:41;;;;;;;56.13;22.02;;;;;;;-1.84;100.00;102065.34;5107039;28;20674;-69
2022/01/19 08:38:07;;;;;;;44.30;21.20;;;;;;;-1.76;100.00;102066.16;5100320;28;20019;-69
2022/01/19 08:40:34;;;;;;;56.95;20.95;;;;;;;-1.71;100.00;102060.84;5087233;27;20051;-68
2022/01/19 08:42:59;;;;;;;49.63;19.48;;;;;;;-1.57;100.00;102070.34;5091605;28;20385;-69
2022/01/19 08:45:25;;;;;;;38.17;18.85;;;;;;;-1.47;100.00;102071.97;5091146;28;20030;-69
2022/01/19 08:47:52;;;;;;;50.17;19.75;;;;;;;-1.42;100.00;102059.63;5110899;27;20506;-69
2022/01/19 08:50:18;;;;;;;48.53;18.83;;;;;;;-1.32;100.00;102057.78;5105288;28;20055;-69
2022/01/19 08:52:44;;;;;;;42.22;18.35;;;;;;;-1.21;100.00;102074.31;5111364;28;20043;-69
2022/01/19 08:55:10;;;;;;;46.50;19.73;;;;;;;-1.18;100.00;102056.72;5108294;28;20039;-69
2022/01/19 08:57:36;;;;;;;39.67;19.50;;;;;;;-1.04;100.00;102062.69;5109501;28;20049;-69
2022/01/19 09:00:07;;;;;;;53.33;18.20;;;;;;;-0.98;100.00;102052.06;5107792;28;20040;-69
2022/01/19 09:02:32;;;;;;;43.33;15.98;;;;;;;-0.89;100.00;102049.31;5110090;28;20416;-69
2022/01/19 09:04:58;;;;;;;40.33;17.70;;;;;;;-0.88;100.00;102048.41;5097971;28;20081;-69
2022/01/19 09:07:23;;;;;;;41.42;18.13;;;;;;;-0.73;100.00;102047.34;5107577;28;20031;-70
2022/01/19 09:09:49;;;;;;;44.28;17.77;;;;;;;-0.65;100.00;102054.22;5104823;28;20044;-69
2022/01/19 09:12:14;;;;;;;41.30;17.13;;;;;;;-0.62;99.95;102032.22;5111440;28;20028;-69
2022/01/19 09:14:40;;;;;;;38.33;16.27;;;;;;;-0.43;99.82;102057.41;5110183;28;20031;-69
2022/01/19 09:17:07;;;;;;;37.00;15.43;;;;;;;-0.36;99.53;102051.16;5108557;28;20102;-69
2022/01/19 09:19:35;;;;;;;42.35;15.52;;;;;;;-0.27;99.34;102049.25;5091472;28;20031;-69
2022/01/19 09:22:03;;;;;;;30.30;14.35;;;;;;;-0.20;99.17;102044.72;5086995;28;20036;-69
2022/01/19 09:24:29;;;;;;;33.33;14.68;;;;;;;-0.16;98.79;102036.75;5104003;28;20035;-69
2022/01/19 09:26:55;;;;;;;35.58;14.25;;;;;;;0.03;98.11;102040.81;5106503;28;20027;-69
2022/01/19 09:29:20;;;;;;;28.77;13.68;;;;;;;0.11;97.70;102034.53;5105824;28;20699;-69
2022/01/19 09:31:46;;;;;;;33.47;13.60;;;;;;;0.18;97.44;102031.75;5100144;28;20027;-69
2022/01/19 09:34:15;;;;;;;35.25;14.43;;;;;;;0.24;96.73;102026.38;5107222;28;20016;-69
2022/01/19 09:36:46;;;;;;;33.33;13.98;;;;;;;0.31;96.07;102022.72;5100631;27;20050;-69
2022/01/19 09:39:21;;;;;;;33.88;13.68;;;;;;;0.31;95.48;102001.63;5099389;27;20103;-68
2022/01/19 09:41:49;;;;;;;39.50;15.15;;;;;;;0.50;94.65;102018.84;5101049;27;20027;-68
2022/01/19 09:44:17;;;;;;;30.52;13.50;;;;;;;0.56;94.06;102012.56;5094969;28;20830;-69
2022/01/19 09:46:43;;;;;;;39.85;15.15;;;;;;;0.61;93.81;102008.91;5104479;27;20046;-67
2022/01/19 09:49:09;;;;;;;31.90;14.48;;;;;;;0.64;92.64;102000.09;5105297;27;20176;-67
2022/01/19 09:51:35;;;;;;;37.10;14.38;;;;;;;0.70;92.04;101994.66;5108689;28;20023;-67
2022/01/19 09:54:01;;;;;;;32.67;14.07;;;;;;;0.73;91.92;101995.47;5103582;28;20050;-67
2022/01/19 09:56:27;;;;;;;33.20;12.52;;;;;;;0.83;90.88;102002.31;5087541;28;20031;-67
2022/01/19 09:58:53;;;;;;;33.00;13.52;;;;;;;0.91;90.80;101999.50;5097267;27;20407;-68
2022/01/19 10:01:21;;;;;;;34.55;12.35;;;;;;;0.94;90.17;101983.59;5096027;28;20036;-67
2022/01/19 10:03:46;;;;;;;27.80;12.07;;;;;;;1.02;89.33;101986.91;5105992;27;20051;-67
2022/01/19 10:06:15;;;;;;;44.90;14.38;;;;;;;1.10;88.72;101992.91;5081994;28;20093;-67
2022/01/19 10:08:55;;;;;;;38.38;12.65;;;;;;;1.09;88.38;101973.53;5093734;28;20028;-67
2022/01/19 10:17:06;;;;;;;30.67;11.65;;;;;;;1.29;86.24;101958.09;5109930;28;20085;-67
2022/01/19 10:19:53;;;;;;;27.98;11.98;;;;;;;1.43;84.89;101958.63;5077729;28;20136;-67
2022/01/19 10:22:29;;;;;;;35.38;12.75;;;;;;;1.60;83.52;101952.91;5103428;28;20383;-67
2022/01/19 10:25:04;;;;;;;33.90;13.93;;;;;;;1.60;82.93;101930.00;5107298;28;20380;-67
2022/01/19 10:27:34;;;;;;;30.98;13.98;;;;;;;1.68;83.14;101938.59;5086501;28;20126;-67
2022/01/19 10:30:02;;;;;;;34.50;14.65;;;;;;;1.76;82.80;101946.31;5107761;28;20123;-67
2022/01/19 10:32:30;;;;;;;31.42;13.68;;;;;;;1.77;82.90;101930.44;5107757;28;20456;-67
2022/01/19 10:34:56;;;;;;;36.00;12.68;;;;;;;1.84;82.70;101934.63;5103483;27;20027;-65
2022/01/19 10:37:28;;;;;;;35.60;13.45;;;;;;;1.82;82.69;101919.72;5098957;27;20027;-65
2022/01/19 10:39:57;;;;;;;33.45;13.38;;;;;;;1.90;82.60;101921.25;5084181;28;20061;-65
2022/01/19 10:42:30;;;;;;;27.98;13.13;;;;;;;1.99;81.90;101915.72;5110383;27;20059;-65
2022/01/19 10:44:57;;;;;;;27.42;13.15;;;;;;;2.04;81.92;101921.72;5080036;28;20023;-65
2022/01/19 10:47:50;;;;;;;34.78;12.95;;;;;;;2.09;82.23;101911.91;5099516;27;20112;-66
2022/01/19 10:50:30;;;;;;;31.48;12.68;;;;;;;2.12;81.71;101903.00;5094852;28;20039;-66
2022/01/19 10:52:59;;;;;;;30.52;12.27;;;;;;;2.25;81.32;101902.63;5110268;28;20652;-66
2022/01/19 10:55:42;;;;;;;31.90;13.30;;;;;;;2.28;81.06;101886.66;5094943;28;20054;-66
2022/01/19 10:58:13;;;;;;;30.30;12.15;;;;;;;2.39;80.77;101892.50;5093692;28;20468;-66
2022/01/19 11:00:47;;;;;;;30.50;13.00;;;;;;;2.46;79.63;101892.31;5096572;28;20026;-66
2022/01/19 11:03:20;;;;;;;24.80;10.82;;;;;;;2.56;78.76;101885.84;5104292;28;20032;-66
2022/01/19 11:05:51;;;;;;;32.72;12.30;;;;;;;2.59;78.19;101883.97;5104412;28;20422;-66
2022/01/19 11:08:19;;;;;;;27.75;12.32;;;;;;;2.72;77.59;101880.03;5112553;28;20377;-67
2022/01/19 11:11:17;;;;;;;30.42;12.77;;;;;;;2.68;77.00;101867.81;5099480;28;20084;-67
2022/01/19 11:13:43;;;;;;;28.55;12.13;;;;;;;2.72;77.00;101865.91;5081979;28;20047;-67
2022/01/19 11:16:27;;;;;;;31.55;12.77;;;;;;;2.74;76.95;101853.50;5111502;28;20088;-70
2022/01/19 11:18:53;;;;;;;;;;;;;;;2.82;76.26;101864.72;5093695;27;20504;-73
2022/01/19 11:21:26;;;;;;;27.85;10.98;;;;;;;2.79;75.91;101855.09;5080870;28;20311;-67
2022/01/19 11:24:05;;;;;;;30.90;11.35;;;;;;;2.92;75.45;101866.16;5076370;28;20038;-67
2022/01/19 11:26:31;;;;;;;26.13;11.27;;;;;;;2.92;75.02;101851.13;5099009;28;20023;-67
2022/01/19 11:29:19;;;;;;;31.83;11.23;;;;;;;3.00;75.17;101854.38;5093956;28;20479;-68
2022/01/19 11:31:46;;;;;;;27.02;10.82;;;;;;;3.02;74.82;101846.38;5107563;28;20047;-68
2022/01/19 11:34:12;;;;;;;30.35;11.27;;;;;;;3.01;73.92;101831.41;5101712;28;20019;-68
2022/01/19 11:36:43;;;;;;;26.20;10.82;;;;;;;3.09;73.95;101835.53;5092403;28;20675;-68
2022/01/19 11:39:20;;;;;;;26.58;11.20;;;;;;;3.12;74.00;101814.22;5110533;28;20035;-67
2022/01/19 11:41:47;;;;;;;25.33;11.80;;;;;;;3.20;73.13;101819.28;5100871;28;20076;-67
2022/01/19 11:44:36;;;;;;;25.25;10.85;;;;;;;3.11;73.52;101801.03;5108447;28;20093;-67
2022/01/19 11:47:21;;;;;;;28.95;10.35;;;;;;;3.19;74.01;101807.78;5109973;28;20019;-67
2022/01/19 11:49:50;;;;;;;25.17;10.40;;;;;;;3.29;73.70;101808.38;5106148;28;20463;-67
2022/01/19 11:52:19;;;;;;;26.27;10.27;;;;;;;3.28;72.48;101783.63;5111166;28;20031;-67
2022/01/19 11:54:45;;;;;;;20.73;9.88;;;;;;;3.33;72.05;101794.06;5092599;28;20032;-67
2022/01/19 11:57:25;;;;;;;31.73;10.40;;;;;;;3.36;72.27;101799.28;5110933;28;20023;-68
2022/01/19 11:59:55;;;;;;;21.00;10.00;;;;;;;3.34;72.70;101788.72;5104418;28;20486;-68
2022/01/19 12:02:20;;;;;;;30.45;11.48;;;;;;;3.36;72.96;101778.06;5106288;28;20438;-68
2022/01/19 12:04:54;;;;;;;23.38;10.23;;;;;;;3.38;73.09;101787.69;5099146;28;20027;-67
2022/01/19 12:07:41;;;;;;;28.60;11.05;;;;;;;3.41;73.19;101778.75;5096092;28;20038;-68
2022/01/19 12:10:10;;;;;;;25.30;10.55;;;;;;;3.49;72.47;101787.31;5091151;28;20036;-68
2022/01/19 12:12:44;;;;;;;30.60;10.65;;;;;;;3.51;71.92;101782.84;5105719;28;20475;-70
2022/01/19 12:16:11;;;;;;;25.80;10.32;;;;;;;3.54;71.80;101769.44;5107729;28;20031;-70
2022/01/19 12:18:47;;;;;;;25.42;10.00;;;;;;;3.57;71.48;101770.22;5108382;28;20122;-70
2022/01/19 12:21:21;;;;;;;31.10;10.27;;;;;;;3.62;71.27;101759.44;5108307;28;20035;-70
2022/01/19 12:23:49;;;;;;;26.65;10.23;;;;;;;3.68;70.97;101761.88;5089663;28;20027;-70
2022/01/19 12:26:15;;;;;;;27.33;10.68;;;;;;;3.68;70.73;101746.78;5108442;28;20032;-70
2022/01/19 12:28:49;;;;;;;25.08;10.27;;;;;;;3.72;70.91;101744.91;5082077;28;20020;-70
2022/01/19 12:31:24;;;;;;;32.10;11.00;;;;;;;3.73;70.90;101742.19;5094723;27;20038;-70
2022/01/19 12:34:06;;;;;;;27.52;11.30;;;;;;;3.77;70.70;101737.66;5099640;27;20036;-70
2022/01/19 12:36:47;;;;;;;28.17;9.88;;;;;;;3.81;70.53;101742.75;5095062;28;20388;-71
2022/01/19 12:39:24;;;;;;;27.90;10.30;;;;;;;3.87;69.63;101718.66;5098640;27;20049;-70